CheckWX is a tool to help pilots better visualize weather data.  It is not intended as a substitute for an official pre-flight weather briefing.

20:25:52 UTC

KMEZ METAR
Mena Intermountain Municipal Airport
Mena, Arkansas, USA
Current

31 mins ago

KMEZ 201955Z AUTO 28007KT 10SM CLR 23/01 A3000 RMK AO2
Observed
Apr-20 @ 19:55 UTC
Wind
  • 280° at 7 KTS
Visibility
10 SM
Flight Rules
VFR
Cloud Levels
  • Clear skies
Temperature
23°C / 73°F
Dewpoint
C / 34°F
Humidity
23%
Altimeter
30" Hg
Pressure
1015.92 hPa
Previous

51 mins ago

KMEZ 201935Z AUTO 27005KT 10SM CLR 23/03 A3001 RMK AO2 TSNO
Observed
Apr-20 @ 19:35 UTC
Wind
  • 270° at 5 KTS
Visibility
10 SM
Flight Rules
VFR
Cloud Levels
  • Clear skies
Temperature
23°C / 73°F
Dewpoint
C / 37°F
Humidity
27%
Altimeter
30.01" Hg
Pressure
1016.22 hPa
Previous

1 hour ago

KMEZ 201915Z AUTO 27007G10KT 10SM CLR 22/01 A3002 RMK AO2
Observed
Apr-20 @ 19:15 UTC
Wind
  • 270° at 7 KTS
  • Gusting to 10 KTS
Visibility
10 SM
Flight Rules
VFR
Cloud Levels
  • Clear skies
Temperature
22°C / 72°F
Dewpoint
C / 34°F
Humidity
25%
Altimeter
30.02" Hg
Pressure
1016.62 hPa